Time;durP1;ratioP1;P1;durP2;ratioP2;P2;SDS_P1;SDS_P2;PMS_P1;PMS_P2;Temp;Humidity;BMP_temperature;BMP_pressure;BME280_temperature;BME280_humidity;BME280_pressure;Samples;Min_cycle;Max_cycle;Signal;HPM_P1;HPM_P2
2024/04/10 00:02:10;;;;;;;0.80;0.80;;;17.60;50.80;213.40;229858.00;;;;5346866;26;20371;-57
2024/04/10 00:04:39;;;;;;;0.70;0.70;;;17.60;50.90;213.40;229858.00;;;;5330811;26;20280;-57
2024/04/10 00:07:06;;;;;;;0.70;0.70;;;17.60;50.90;213.40;229858.00;;;;5311974;26;20596;-57
2024/04/10 00:09:34;;;;;;;0.70;0.70;;;17.60;50.90;213.40;229858.00;;;;5311500;26;20804;-57
2024/04/10 00:12:00;;;;;;;0.60;0.60;;;17.60;50.90;213.40;229858.00;;;;5312814;26;20290;-57
2024/04/10 00:14:29;;;;;;;0.60;0.60;;;17.60;50.90;213.40;229858.00;;;;5312340;26;20242;-57
2024/04/10 00:16:58;;;;;;;0.80;0.80;;;17.60;50.90;213.40;229858.00;;;;5312173;26;20250;-57
2024/04/10 00:19:26;;;;;;;0.60;0.60;;;17.60;50.90;213.40;229858.00;;;;5311470;26;20246;-56
2024/04/10 00:21:53;;;;;;;0.60;0.60;;;17.60;50.90;213.40;229858.00;;;;5321823;26;20310;-57
2024/04/10 00:24:22;;;;;;;0.70;0.70;;;17.60;50.90;213.40;229858.00;;;;5312317;26;20273;-57
2024/04/10 00:26:49;;;;;;;0.63;0.63;;;17.50;50.90;213.40;229858.00;;;;5312563;26;20347;-57
2024/04/10 00:29:18;;;;;;;0.90;0.87;;;17.50;50.90;213.40;229858.00;;;;5311123;26;20269;-57
2024/04/10 00:31:45;;;;;;;0.70;0.70;;;17.50;50.90;213.40;229858.00;;;;5311656;26;20302;-56
2024/04/10 00:34:16;;;;;;;0.60;0.60;;;17.50;50.90;213.40;229858.00;;;;5312747;26;20242;-56
2024/04/10 00:36:42;;;;;;;0.60;0.60;;;17.50;50.90;213.40;229858.00;;;;5311941;26;20696;-56
2024/04/10 00:39:12;;;;;;;1.07;1.00;;;17.50;50.90;213.40;229858.00;;;;5311109;26;20345;-56
2024/04/10 00:41:38;;;;;;;0.80;0.80;;;17.50;50.90;213.40;229858.00;;;;5312502;26;20310;-57
2024/04/10 00:44:07;;;;;;;0.80;0.80;;;17.50;50.90;213.40;229858.00;;;;5332005;26;20765;-57
2024/04/10 00:46:35;;;;;;;0.70;0.70;;;17.50;50.90;213.40;229858.00;;;;5346008;26;20372;-57
2024/04/10 00:49:04;;;;;;;0.83;0.83;;;17.50;50.90;213.40;229858.00;;;;5338577;26;20734;-57
2024/04/10 00:51:34;;;;;;;0.67;0.67;;;17.50;50.90;213.40;229858.00;;;;5310895;26;20731;-57
2024/04/10 00:54:05;;;;;;;0.70;0.70;;;17.50;51.00;213.40;229858.00;;;;5311675;26;20293;-57
2024/04/10 00:56:31;;;;;;;0.50;0.50;;;17.50;51.00;213.40;229858.00;;;;5321648;26;20730;-57
2024/04/10 00:59:02;;;;;;;0.70;0.70;;;17.50;51.00;213.40;229858.00;;;;5343158;26;20719;-57
2024/04/10 01:01:28;;;;;;;0.80;0.80;;;17.40;50.90;213.40;229858.00;;;;5346025;26;20289;-57
2024/04/10 01:03:57;;;;;;;0.80;0.80;;;17.50;51.00;213.40;229858.00;;;;5323178;26;20276;-57
2024/04/10 01:06:29;;;;;;;0.50;0.50;;;17.40;50.90;213.40;229858.00;;;;5311629;26;20373;-57
2024/04/10 01:09:02;;;;;;;0.70;0.70;;;17.50;51.00;213.40;229858.00;;;;5310324;26;20238;-57
2024/04/10 01:11:29;;;;;;;0.60;0.60;;;17.50;51.00;213.40;229858.00;;;;5311949;26;20293;-56
2024/04/10 01:13:57;;;;;;;0.60;0.60;;;17.50;51.00;213.40;229858.00;;;;5311448;26;20313;-56
2024/04/10 01:16:23;;;;;;;0.57;0.57;;;17.40;50.90;213.40;229858.00;;;;5311335;26;20249;-56
2024/04/10 01:18:52;;;;;;;0.70;0.70;;;17.40;50.90;213.40;229858.00;;;;5311237;26;20273;-58
2024/04/10 01:21:19;;;;;;;0.70;0.70;;;17.50;51.00;213.40;229858.00;;;;5311468;26;20317;-56
2024/04/10 01:23:50;;;;;;;0.60;0.60;;;17.40;50.90;213.40;229858.00;;;;5340477;26;20623;-56
2024/04/10 01:26:16;;;;;;;0.80;0.80;;;17.40;50.90;213.40;229858.00;;;;5325562;26;20746;-56
2024/04/10 01:28:46;;;;;;;0.43;0.43;;;17.40;50.90;213.40;229858.00;;;;5310640;26;20310;-56
2024/04/10 01:31:12;;;;;;;1.03;0.80;;;17.40;50.90;213.40;229858.00;;;;5332717;26;20238;-56
2024/04/10 01:33:41;;;;;;;0.60;0.60;;;17.40;50.90;213.40;229858.00;;;;5335082;26;20239;-56
2024/04/10 01:36:08;;;;;;;0.70;0.70;;;17.40;50.90;213.40;229858.00;;;;5345501;26;20394;-57
2024/04/10 01:38:39;;;;;;;0.70;0.70;;;17.40;50.90;213.40;229858.00;;;;5344452;26;20293;-57
2024/04/10 01:41:08;;;;;;;0.60;0.60;;;17.40;51.00;213.40;229858.00;;;;5338705;26;20686;-57
2024/04/10 01:43:36;;;;;;;0.70;0.70;;;17.40;51.00;213.40;229858.00;;;;5311197;26;20239;-57
2024/04/10 01:46:03;;;;;;;0.70;0.70;;;17.40;51.00;213.40;229858.00;;;;5315434;26;20302;-56
2024/04/10 01:48:31;;;;;;;0.97;0.60;;;17.40;51.00;213.40;229858.00;;;;5344305;26;20279;-56
2024/04/10 01:50:57;;;;;;;0.50;0.50;;;17.40;51.00;213.40;229858.00;;;;5340204;26;20292;-56
2024/04/10 01:53:26;;;;;;;0.70;0.70;;;17.40;51.00;213.40;229858.00;;;;5310920;26;20242;-56
2024/04/10 01:55:52;;;;;;;0.70;0.70;;;17.40;51.00;213.40;229858.00;;;;5322537;26;20793;-56
2024/04/10 01:58:24;;;;;;;0.50;0.50;;;17.40;51.00;213.40;229858.00;;;;5309875;26;20746;-56
2024/04/10 02:00:50;;;;;;;0.67;0.67;;;17.40;51.00;213.40;229858.00;;;;5310712;26;20772;-57
2024/04/10 02:03:19;;;;;;;1.13;0.70;;;17.30;51.00;213.40;229858.00;;;;5316248;26;20339;-56
2024/04/10 02:05:45;;;;;;;0.97;0.63;;;17.40;51.00;213.40;229858.00;;;;5330779;26;20245;-57
2024/04/10 02:08:13;;;;;;;0.80;0.70;;;17.30;51.00;213.40;229858.00;;;;5329980;26;20280;-57
2024/04/10 02:10:39;;;;;;;0.67;0.67;;;17.40;51.00;213.40;229858.00;;;;5333691;26;20393;-57
2024/04/10 02:13:08;;;;;;;0.70;0.70;;;17.30;51.00;213.40;229858.00;;;;5343635;26;20737;-56
2024/04/10 02:15:36;;;;;;;0.70;0.70;;;17.30;51.00;213.40;229858.00;;;;5330827;26;20325;-57
2024/04/10 02:18:06;;;;;;;0.70;0.70;;;17.30;51.00;213.40;229858.00;;;;5325676;26;20286;-57
2024/04/10 02:20:32;;;;;;;0.50;0.50;;;17.30;51.00;213.40;229858.00;;;;5321932;26;20418;-58
2024/04/10 02:23:01;;;;;;;0.70;0.70;;;17.30;51.00;213.40;229858.00;;;;5342250;26;20329;-58
2024/04/10 02:25:29;;;;;;;0.67;0.67;;;17.30;51.00;213.40;229858.00;;;;5325789;26;20298;-58
2024/04/10 02:27:57;;;;;;;0.50;0.50;;;17.30;51.00;213.40;229858.00;;;;5309203;26;20370;-59
2024/04/10 02:30:23;;;;;;;0.60;0.60;;;17.30;51.00;213.40;229858.00;;;;5310228;26;20385;-59
2024/04/10 02:32:55;;;;;;;0.50;0.50;;;17.30;51.00;213.40;229858.00;;;;5311071;26;20242;-59
2024/04/10 02:35:21;;;;;;;0.60;0.60;;;17.30;51.10;213.40;229858.00;;;;5333166;26;20300;-59
2024/04/10 02:37:50;;;;;;;0.73;0.73;;;17.30;51.10;213.40;229858.00;;;;5329724;26;20314;-58
2024/04/10 02:40:16;;;;;;;0.67;0.67;;;17.30;51.10;213.40;229858.00;;;;5310810;26;20373;-58
2024/04/10 02:42:57;;;;;;;0.80;0.50;;;17.30;51.10;213.40;229858.00;;;;5310523;26;20311;-59
2024/04/10 02:45:23;;;;;;;0.50;0.50;;;17.30;51.00;213.40;229858.00;;;;5332445;26;20278;-59
2024/04/10 02:47:54;;;;;;;0.60;0.60;;;17.30;51.10;213.40;229858.00;;;;5343431;26;20249;-59
2024/04/10 02:50:20;;;;;;;0.60;0.60;;;17.30;51.00;213.40;229858.00;;;;5336047;26;20347;-58
2024/04/10 02:52:49;;;;;;;0.60;0.60;;;17.30;51.10;213.40;229858.00;;;;5310004;26;20246;-59
2024/04/10 02:55:15;;;;;;;0.60;0.60;;;17.30;51.00;213.40;229858.00;;;;5324891;26;20683;-59
2024/04/10 02:57:44;;;;;;;0.70;0.70;;;17.30;51.10;213.40;229858.00;;;;5309144;26;20250;-58
2024/04/10 03:00:11;;;;;;;0.67;0.67;;;17.30;51.10;213.40;229858.00;;;;5310204;26;20306;-58
2024/04/10 03:02:39;;;;;;;0.67;0.67;;;17.30;51.10;213.40;229858.00;;;;5335669;26;20279;-58
2024/04/10 03:05:08;;;;;;;1.03;0.60;;;17.30;51.10;213.40;229858.00;;;;5326977;26;20799;-58
2024/04/10 03:07:37;;;;;;;0.60;0.60;;;17.20;51.00;213.40;229858.00;;;;5309444;26;20339;-58
2024/04/10 03:10:04;;;;;;;0.60;0.60;;;17.30;51.10;213.40;229858.00;;;;5310394;26;20298;-58
2024/04/10 03:12:34;;;;;;;0.70;0.70;;;17.30;51.10;213.40;229858.00;;;;5309721;26;20254;-58
2024/04/10 03:15:00;;;;;;;0.60;0.60;;;17.20;51.00;213.40;229858.00;;;;5312831;26;20280;-58
2024/04/10 03:17:29;;;;;;;0.50;0.50;;;17.20;51.00;213.40;229858.00;;;;5312332;26;20313;-58
2024/04/10 03:19:56;;;;;;;0.60;0.60;;;17.20;51.00;213.40;229858.00;;;;5323537;26;20246;-58
2024/04/10 03:22:27;;;;;;;0.80;0.80;;;17.20;51.00;213.40;229858.00;;;;5313078;26;20305;-58
2024/04/10 03:24:53;;;;;;;0.70;0.70;;;17.20;51.00;213.40;229858.00;;;;5312735;26;20290;-58
2024/04/10 03:27:22;;;;;;;0.90;0.70;;;17.20;51.00;213.40;229858.00;;;;5312864;26;20848;-58
2024/04/10 03:29:48;;;;;;;0.60;0.60;;;17.20;51.00;213.40;229858.00;;;;5312600;26;20238;-59
2024/04/10 03:32:16;;;;;;;0.50;0.50;;;17.20;51.00;213.40;229858.00;;;;5312737;26;20348;-58
2024/04/10 03:34:42;;;;;;;0.60;0.60;;;17.20;51.00;213.40;229858.00;;;;5319627;26;20294;-58
2024/04/10 03:37:11;;;;;;;0.60;0.60;;;17.20;51.00;213.40;229858.00;;;;5312541;26;20344;-58
2024/04/10 03:39:40;;;;;;;0.70;0.70;;;17.20;51.00;213.40;229858.00;;;;5312142;26;20269;-59
2024/04/10 03:42:09;;;;;;;0.73;0.67;;;17.20;51.00;213.40;229858.00;;;;5313695;26;20246;-58
2024/04/10 03:44:38;;;;;;;0.50;0.50;;;17.20;51.00;213.40;229858.00;;;;5312613;26;20234;-58
2024/04/10 03:47:07;;;;;;;1.13;0.50;;;17.20;51.00;213.40;229858.00;;;;5312663;26;20235;-58
2024/04/10 03:49:36;;;;;;;0.50;0.50;;;17.20;51.00;213.40;229858.00;;;;5315463;26;20306;-58
2024/04/10 03:52:04;;;;;;;0.60;0.60;;;17.20;51.00;213.40;229858.00;;;;5312400;26;20713;-58
2024/04/10 03:54:31;;;;;;;0.50;0.50;;;17.20;51.00;213.40;229858.00;;;;5312492;26;20377;-59
2024/04/10 03:57:02;;;;;;;0.60;0.60;;;17.20;51.00;213.40;229858.00;;;;5312795;26;20306;-58
2024/04/10 03:59:28;;;;;;;0.47;0.47;;;17.20;51.00;213.40;229858.00;;;;5311331;26;20357;-58
2024/04/10 04:01:58;;;;;;;0.50;0.50;;;17.20;51.10;213.40;229858.00;;;;5312287;26;20254;-58
2024/04/10 04:04:24;;;;;;;0.50;0.50;;;17.20;51.00;213.40;229858.00;;;;5325121;26;20242;-58
2024/04/10 04:06:53;;;;;;;0.60;0.60;;;17.20;51.00;213.40;229858.00;;;;5312178;26;20254;-58
2024/04/10 04:09:19;;;;;;;0.50;0.50;;;17.20;51.10;213.40;229858.00;;;;5311135;26;20369;-59
2024/04/10 04:11:47;;;;;;;0.50;0.50;;;17.10;51.10;213.40;229858.00;;;;5326614;26;20238;-59
2024/04/10 04:14:19;;;;;;;0.70;0.50;;;17.10;51.00;213.40;229858.00;;;;5345265;26;20292;-58
2024/04/10 04:16:45;;;;;;;0.73;0.63;;;17.10;51.10;213.40;229858.00;;;;5346462;26;20356;-59
2024/04/10 04:19:13;;;;;;;0.80;0.63;;;17.10;51.10;213.40;229858.00;;;;5333121;26;20234;-59
2024/04/10 04:21:39;;;;;;;0.50;0.50;;;17.10;51.10;213.40;229858.00;;;;5312152;26;20310;-59
2024/04/10 04:24:08;;;;;;;0.60;0.60;;;17.10;51.00;213.40;229858.00;;;;5312285;26;20920;-58
2024/04/10 04:26:34;;;;;;;0.50;0.50;;;17.10;51.00;213.40;229858.00;;;;5324989;26;20838;-58
2024/04/10 04:29:03;;;;;;;0.80;0.60;;;17.10;51.10;213.40;229858.00;;;;5311358;26;20250;-58
2024/04/10 04:31:32;;;;;;;0.50;0.50;;;17.10;51.10;213.40;229858.00;;;;5311986;26;20301;-58
2024/04/10 04:34:07;;;;;;;0.73;0.50;;;17.10;51.10;213.40;229858.00;;;;5312221;26;20754;-59
2024/04/10 04:36:33;;;;;;;0.50;0.50;;;17.10;51.10;213.40;229858.00;;;;5312841;26;20273;-58
2024/04/10 04:39:02;;;;;;;0.50;0.50;;;17.10;51.10;213.40;229858.00;;;;5311103;26;20250;-58
2024/04/10 04:41:28;;;;;;;0.60;0.60;;;17.10;51.80;213.40;229858.00;;;;5326821;26;20246;-58
2024/04/10 04:43:57;;;;;;;0.40;0.40;;;17.10;51.10;213.40;229858.00;;;;5311746;26;20242;-59
2024/04/10 04:46:24;;;;;;;0.57;0.57;;;17.10;51.10;213.40;229858.00;;;;5332207;26;20316;-58
2024/04/10 04:48:55;;;;;;;0.50;0.50;;;17.10;51.10;213.40;229858.00;;;;5345068;26;20310;-58
2024/04/10 04:51:21;;;;;;;0.50;0.50;;;17.10;51.10;213.40;229858.00;;;;5324913;26;20307;-58
2024/04/10 04:53:50;;;;;;;0.50;0.50;;;17.10;51.10;213.40;229858.00;;;;5312160;26;20280;-58
2024/04/10 04:56:16;;;;;;;0.47;0.47;;;17.10;51.10;213.40;229858.00;;;;5324298;26;20291;-58
2024/04/10 04:58:44;;;;;;;0.40;0.40;;;17.10;51.10;213.40;229858.00;;;;5310531;26;20250;-58
2024/04/10 05:01:10;;;;;;;0.50;0.50;;;17.10;51.10;213.40;229858.00;;;;5311399;26;20318;-58
2024/04/10 05:06:26;;;;;;;0.57;0.40;;;17.10;51.10;213.40;229858.00;;;;5314020;26;20345;-58
2024/04/10 05:08:54;;;;;;;0.50;0.50;;;17.10;51.80;213.40;229858.00;;;;5310987;26;20723;-58
2024/04/10 05:11:23;;;;;;;0.40;0.40;;;17.10;51.10;213.40;229858.00;;;;5311848;26;20254;-58
2024/04/10 05:13:49;;;;;;;1.00;0.60;;;17.10;51.10;213.40;229858.00;;;;5311528;26;20357;-58
2024/04/10 05:16:18;;;;;;;0.57;0.57;;;17.10;51.10;213.40;229858.00;;;;5311351;26;20325;-58
2024/04/10 05:18:44;;;;;;;0.50;0.50;;;17.10;51.10;213.40;229858.00;;;;5311181;26;20859;-58
2024/04/10 05:21:12;;;;;;;0.50;0.50;;;17.10;51.10;213.40;229858.00;;;;5313731;26;20257;-58
2024/04/10 05:23:41;;;;;;;0.53;0.53;;;17.10;51.10;213.40;229858.00;;;;5345540;26;20360;-58
2024/04/10 05:26:10;;;;;;;0.60;0.60;;;17.10;51.10;213.40;229858.00;;;;5327999;26;20287;-58
2024/04/10 05:28:36;;;;;;;0.53;0.53;;;17.00;51.10;213.40;229858.00;;;;5310573;26;20732;-59
2024/04/10 05:31:08;;;;;;;0.50;0.50;;;17.00;51.10;213.40;229858.00;;;;5310975;26;20246;-58
2024/04/10 05:33:37;;;;;;;0.53;0.53;;;17.00;51.10;213.40;229858.00;;;;5311922;26;20277;-59
2024/04/10 05:36:05;;;;;;;0.93;0.63;;;17.00;51.10;213.40;229858.00;;;;5311073;26;20295;-58
2024/04/10 05:38:35;;;;;;;0.60;0.60;;;17.10;51.10;213.40;229858.00;;;;5344597;26;20280;-59
2024/04/10 05:41:03;;;;;;;0.50;0.50;;;17.00;51.10;213.40;229858.00;;;;5329156;26;20293;-58
2024/04/10 05:43:32;;;;;;;0.47;0.47;;;17.00;51.10;213.40;229858.00;;;;5331945;26;20285;-58
2024/04/10 05:45:59;;;;;;;0.70;0.70;;;17.00;51.10;213.40;229858.00;;;;5318192;26;20281;-58
2024/04/10 05:48:28;;;;;;;0.50;0.50;;;17.00;51.10;213.40;229858.00;;;;5310332;26;20344;-58
2024/04/10 05:50:58;;;;;;;0.50;0.50;;;17.00;51.10;213.40;229858.00;;;;5312549;26;20301;-58
2024/04/10 05:53:27;;;;;;;0.70;0.70;;;17.00;51.10;213.40;229858.00;;;;5310909;26;20234;-58
2024/04/10 05:55:53;;;;;;;0.50;0.50;;;17.00;51.10;213.40;229858.00;;;;5312029;26;20365;-58
2024/04/10 05:58:24;;;;;;;0.50;0.50;;;17.00;51.10;213.40;229858.00;;;;5310069;26;20276;-58
2024/04/10 06:00:50;;;;;;;0.40;0.40;;;17.00;51.10;213.40;229858.00;;;;5310658;26;20313;-58
2024/04/10 06:03:19;;;;;;;0.47;0.47;;;17.00;51.10;213.40;229858.00;;;;5319500;26;20340;-58
2024/04/10 06:05:45;;;;;;;0.50;0.50;;;17.00;51.10;213.40;229858.00;;;;5320626;26;20237;-58
2024/04/10 06:08:14;;;;;;;0.50;0.50;;;17.00;51.10;213.40;229858.00;;;;5343982;26;20241;-58
2024/04/10 06:10:40;;;;;;;0.60;0.60;;;17.00;51.80;213.40;229858.00;;;;5333637;26;20733;-58
2024/04/10 06:13:09;;;;;;;0.60;0.60;;;17.00;51.10;213.40;229858.00;;;;5311341;26;20375;-58
2024/04/10 06:15:37;;;;;;;0.40;0.40;;;17.00;51.10;213.40;229858.00;;;;5345047;26;20333;-58
2024/04/10 06:18:07;;;;;;;0.40;0.40;;;17.00;51.10;213.40;229858.00;;;;5344448;26;20301;-58
2024/04/10 06:20:33;;;;;;;0.60;0.60;;;17.00;51.10;213.40;229858.00;;;;5336591;26;20355;-58
2024/04/10 06:23:02;;;;;;;0.40;0.40;;;17.00;51.10;213.40;229858.00;;;;5310643;26;20242;-58
2024/04/10 06:25:28;;;;;;;0.67;0.67;;;17.00;51.70;213.40;229858.00;;;;5335729;26;20351;-58
2024/04/10 06:27:57;;;;;;;0.50;0.50;;;17.00;51.10;213.40;229858.00;;;;5309685;26;20399;-58
2024/04/10 06:30:23;;;;;;;0.50;0.50;;;17.00;51.10;213.40;229858.00;;;;5310128;26;20243;-58
2024/04/10 06:32:54;;;;;;;0.47;0.47;;;17.00;51.10;213.40;229858.00;;;;5310324;26;20765;-58
2024/04/10 06:35:22;;;;;;;0.50;0.50;;;17.00;51.10;213.40;229858.00;;;;5324506;26;20369;-58
2024/04/10 06:37:48;;;;;;;0.50;0.50;;;17.00;51.10;213.40;229858.00;;;;5309283;26;20302;-58
2024/04/10 06:40:17;;;;;;;0.40;0.40;;;17.00;51.10;213.40;229858.00;;;;5335343;26;20346;-58
2024/04/10 06:42:43;;;;;;;1.40;0.70;;;17.00;51.10;213.40;229858.00;;;;5324338;26;20334;-58
2024/04/10 06:45:12;;;;;;;0.53;0.53;;;17.00;51.10;213.40;229858.00;;;;5310737;26;20242;-59
2024/04/10 06:47:38;;;;;;;0.50;0.50;;;17.00;51.10;213.40;229858.00;;;;5343738;26;20342;-58
2024/04/10 06:50:09;;;;;;;0.70;0.50;;;17.00;51.10;213.40;229858.00;;;;5331967;26;20763;-58
2024/04/10 06:52:38;;;;;;;0.53;0.53;;;17.00;51.10;213.40;229858.00;;;;5327684;26;20306;-58
2024/04/10 06:55:06;;;;;;;0.50;0.50;;;17.00;51.10;213.40;229858.00;;;;5323867;26;20297;-58
2024/04/10 06:57:35;;;;;;;0.50;0.50;;;17.00;51.10;213.40;229858.00;;;;5332703;26;20704;-58
2024/04/10 07:00:02;;;;;;;0.40;0.40;;;17.00;51.10;213.40;229858.00;;;;5347251;26;20245;-58
2024/04/10 07:02:31;;;;;;;0.50;0.50;;;17.00;51.10;213.40;229858.00;;;;5333164;26;20283;-58
2024/04/10 07:04:57;;;;;;;0.50;0.50;;;17.00;51.10;213.40;229858.00;;;;5344532;26;20292;-58
2024/04/10 07:07:28;;;;;;;0.40;0.40;;;16.90;51.10;213.40;229858.00;;;;5332944;26;20840;-58
2024/04/10 07:09:55;;;;;;;0.40;0.40;;;16.90;51.10;213.40;229858.00;;;;5346042;26;20698;-58
2024/04/10 07:12:25;;;;;;;0.47;0.47;;;17.00;51.80;213.40;229858.00;;;;5344835;26;20287;-58
2024/04/10 07:14:51;;;;;;;0.60;0.60;;;16.90;51.10;213.40;229858.00;;;;5347815;26;20253;-58
2024/04/10 07:17:20;;;;;;;0.50;0.50;;;16.90;51.10;213.40;229858.00;;;;5346722;26;20828;-58
2024/04/10 07:19:46;;;;;;;0.63;0.57;;;16.90;51.10;213.40;229858.00;;;;5343482;26;20241;-59
2024/04/10 07:22:14;;;;;;;0.50;0.50;;;16.90;51.20;213.40;229858.00;;;;5347090;26;20605;-59
2024/04/10 07:24:46;;;;;;;0.50;0.50;;;16.90;51.10;213.40;229858.00;;;;5347250;26;20241;-58
2024/04/10 07:27:12;;;;;;;0.50;0.50;;;16.90;51.20;213.40;229858.00;;;;5313283;26;20293;-58
2024/04/10 07:29:40;;;;;;;0.50;0.50;;;17.00;51.20;213.40;229858.00;;;;5312230;26;20618;-58
2024/04/10 07:32:06;;;;;;;0.50;0.50;;;16.90;51.10;213.40;229858.00;;;;5312785;26;20305;-58
2024/04/10 07:34:35;;;;;;;0.43;0.43;;;16.90;51.20;213.40;229858.00;;;;5313656;26;20277;-58
2024/04/10 07:37:03;;;;;;;0.40;0.40;;;16.90;51.20;213.40;229858.00;;;;5312526;26;20851;-58
2024/04/10 07:39:32;;;;;;;0.50;0.50;;;16.90;51.10;213.40;229858.00;;;;5311739;26;20781;-58
2024/04/10 07:42:00;;;;;;;0.50;0.50;;;16.90;51.10;213.40;229858.00;;;;5313274;26;20320;-58
2024/04/10 07:44:29;;;;;;;0.37;0.37;;;16.90;51.10;213.40;229858.00;;;;5313060;26;20234;-58
2024/04/10 07:46:56;;;;;;;0.60;0.60;;;16.90;51.20;213.40;229858.00;;;;5312323;26;20294;-58
2024/04/10 07:49:24;;;;;;;0.50;0.50;;;16.90;51.10;213.40;229858.00;;;;5330932;26;20621;-58
2024/04/10 07:51:50;;;;;;;0.40;0.40;;;16.90;51.10;213.40;229858.00;;;;5312716;26;20242;-58
2024/04/10 07:54:19;;;;;;;0.50;0.50;;;16.90;51.10;213.40;229858.00;;;;5312421;26;20254;-58
2024/04/10 07:56:45;;;;;;;0.50;0.50;;;16.90;51.10;213.40;229858.00;;;;5313418;26;20845;-58
2024/04/10 07:59:16;;;;;;;0.60;0.60;;;16.90;51.10;213.40;229858.00;;;;5311213;26;20250;-59
2024/04/10 08:01:42;;;;;;;0.40;0.40;;;16.90;51.10;213.40;229858.00;;;;5332837;26;20308;-58
2024/04/10 08:04:11;;;;;;;0.50;0.50;;;16.90;51.10;213.40;229858.00;;;;5346328;26;20281;-58
2024/04/10 08:06:37;;;;;;;0.60;0.60;;;16.90;51.10;213.40;229858.00;;;;5332699;26;20238;-58
2024/04/10 08:09:06;;;;;;;0.40;0.40;;;16.90;51.10;213.40;229858.00;;;;5346017;26;20281;-58
2024/04/10 08:11:33;;;;;;;0.50;0.50;;;16.90;51.10;213.40;229858.00;;;;5323047;26;20247;-58
2024/04/10 08:14:02;;;;;;;0.63;0.43;;;16.90;51.10;213.40;229858.00;;;;5312971;26;20310;-58
2024/04/10 08:16:32;;;;;;;0.40;0.40;;;16.90;51.10;213.40;229858.00;;;;5312342;26;20246;-58
2024/04/10 08:19:02;;;;;;;0.50;0.50;;;16.90;51.10;213.40;229858.00;;;;5312164;26;20564;-58
2024/04/10 08:21:29;;;;;;;0.60;0.60;;;16.90;51.10;213.40;229858.00;;;;5344441;26;20241;-58
2024/04/10 08:23:57;;;;;;;0.53;0.53;;;16.90;51.10;213.40;229858.00;;;;5346691;26;20253;-58
2024/04/10 08:26:24;;;;;;;0.50;0.50;;;16.90;51.10;213.40;229858.00;;;;5324893;26;20365;-58
2024/04/10 08:28:53;;;;;;;0.60;0.50;;;16.90;51.10;213.40;229858.00;;;;5311589;26;20280;-58
2024/04/10 08:31:22;;;;;;;0.50;0.50;;;16.90;51.10;213.40;229858.00;;;;5313051;26;20320;-58
2024/04/10 08:33:55;;;;;;;0.50;0.50;;;16.90;51.10;213.40;229858.00;;;;5346351;26;20284;-58
2024/04/10 08:36:22;;;;;;;0.60;0.60;;;16.90;51.10;213.40;229858.00;;;;5329288;26;20607;-58
2024/04/10 08:38:50;;;;;;;0.30;0.30;;;16.90;51.10;213.40;229858.00;;;;5310981;26;20302;-58
2024/04/10 08:41:18;;;;;;;0.40;0.40;;;16.90;51.10;213.40;229858.00;;;;5312283;26;20288;-58
2024/04/10 08:43:48;;;;;;;0.97;0.50;;;16.90;51.10;213.40;229858.00;;;;5312040;26;20284;-58
2024/04/10 08:46:17;;;;;;;0.50;0.50;;;16.90;51.10;213.40;229858.00;;;;5312020;26;20377;-58
2024/04/10 08:48:48;;;;;;;0.50;0.50;;;16.90;51.20;213.40;229858.00;;;;5331630;26;20253;-58
2024/04/10 08:51:17;;;;;;;0.40;0.40;;;16.90;51.10;213.40;229858.00;;;;5316647;26;20293;-58
2024/04/10 08:53:48;;;;;;;0.40;0.40;;;16.90;51.10;213.40;229858.00;;;;5311809;26;20246;-59
2024/04/10 08:56:18;;;;;;;0.40;0.40;;;16.90;51.10;213.40;229858.00;;;;5312513;26;20242;-58
2024/04/10 08:58:44;;;;;;;0.40;0.40;;;16.90;51.10;213.40;229858.00;;;;5331640;26;20665;-58
2024/04/10 09:01:25;;;;;;;0.43;0.43;;;16.90;51.10;213.40;229858.00;;;;5346178;26;20268;-58
2024/04/10 09:03:52;;;;;;;0.40;0.40;;;16.90;51.00;213.40;229858.00;;;;5311512;26;20301;-58
2024/04/10 09:06:23;;;;;;;0.73;0.70;;;16.90;51.00;213.40;229858.00;;;;5312169;26;20238;-58
2024/04/10 09:08:56;;;;;;;0.60;0.60;;;16.90;51.00;213.40;229858.00;;;;5318219;26;20284;-58
2024/04/10 09:11:25;;;;;;;0.40;0.40;;;16.90;51.00;213.40;229858.00;;;;5323922;26;20288;-58
2024/04/10 09:14:00;;;;;;;0.40;0.40;;;16.90;51.00;213.40;229858.00;;;;5311446;26;20282;-58
2024/04/10 09:16:29;;;;;;;0.40;0.40;;;17.00;51.00;213.40;229858.00;;;;5311386;26;20250;-58
2024/04/10 09:18:55;;;;;;;0.40;0.40;;;16.90;51.00;213.40;229858.00;;;;5310386;26;20285;-58
2024/04/10 09:21:26;;;;;;;0.50;0.50;;;17.00;51.00;213.40;229858.00;;;;5312177;26;20246;-58
2024/04/10 09:23:58;;;;;;;0.70;0.50;;;16.90;51.00;213.40;229858.00;;;;5311779;26;20238;-58
2024/04/10 09:26:27;;;;;;;0.50;0.50;;;17.00;51.00;213.40;229858.00;;;;5316598;26;20254;-58
2024/04/10 09:29:03;;;;;;;0.60;0.60;;;16.90;51.00;213.40;229858.00;;;;5332951;26;20338;-58
2024/04/10 09:31:33;;;;;;;0.50;0.50;;;16.90;51.00;213.40;229858.00;;;;5345433;26;20245;-58
2024/04/10 09:33:59;;;;;;;0.40;0.40;;;17.00;51.00;213.40;229858.00;;;;5345620;26;20237;-58
2024/04/10 09:36:35;;;;;;;0.50;0.50;;;16.90;51.00;213.40;229858.00;;;;5323128;26;20837;-58
2024/04/10 09:39:05;;;;;;;0.50;0.50;;;16.90;51.00;213.40;229858.00;;;;5310439;26;20234;-58
2024/04/10 09:41:39;;;;;;;0.60;0.60;;;16.90;50.90;213.40;229858.00;;;;5311606;26;20238;-58
2024/04/10 09:44:05;;;;;;;0.50;0.50;;;16.90;50.90;213.40;229858.00;;;;5311292;26;20238;-58
2024/04/10 09:46:37;;;;;;;0.60;0.60;;;16.90;50.90;213.40;229858.00;;;;5310842;26;20250;-59
2024/04/10 09:49:10;;;;;;;0.60;0.60;;;17.00;51.00;213.40;229858.00;;;;5320335;26;20253;-58
2024/04/10 09:51:45;;;;;;;0.50;0.50;;;16.90;50.90;213.40;229858.00;;;;5313621;26;20243;-59
2024/04/10 09:54:11;;;;;;;0.60;0.60;;;17.00;50.90;213.40;229858.00;;;;5311183;26;20777;-58
2024/04/10 09:56:43;;;;;;;0.60;0.60;;;17.00;50.90;213.40;229858.00;;;;5311080;26;20302;-58
2024/04/10 09:59:13;;;;;;;0.50;0.50;;;16.90;50.90;213.40;229858.00;;;;5309933;26;20776;-58
2024/04/10 10:01:41;;;;;;;0.40;0.40;;;17.00;50.90;213.40;229858.00;;;;5310615;26;20297;-58
2024/04/10 10:04:09;;;;;;;0.30;0.30;;;17.00;50.90;213.40;229858.00;;;;5311567;26;20338;-58
2024/04/10 10:06:38;;;;;;;1.27;0.50;;;17.00;50.90;213.40;229858.00;;;;5310868;26;20676;-58
2024/04/10 10:09:07;;;;;;;0.40;0.40;;;17.00;50.80;213.40;229858.00;;;;5309805;26;20859;-58
2024/04/10 10:11:35;;;;;;;0.60;0.60;;;17.00;50.80;213.40;229858.00;;;;5310974;26;20242;-58
2024/04/10 10:14:03;;;;;;;0.60;0.50;;;17.00;50.80;213.40;229858.00;;;;5310535;26;20345;-58
2024/04/10 10:16:33;;;;;;;0.50;0.50;;;17.00;50.80;213.40;229858.00;;;;5310692;26;20243;-58
2024/04/10 10:19:02;;;;;;;0.50;0.50;;;17.00;50.70;213.40;229858.00;;;;5310528;26;20281;-58
2024/04/10 10:21:33;;;;;;;0.60;0.60;;;17.00;50.70;213.40;229858.00;;;;5310691;26;20664;-58
2024/04/10 10:24:03;;;;;;;0.40;0.40;;;17.00;50.70;213.40;229858.00;;;;5309455;26;20290;-58
2024/04/10 10:26:35;;;;;;;0.80;0.60;;;17.00;50.70;213.40;229858.00;;;;5311164;26;20238;-58
2024/04/10 10:29:02;;;;;;;0.67;0.67;;;17.00;50.70;213.40;229858.00;;;;5332734;26;20838;-58
2024/04/10 10:31:30;;;;;;;0.73;0.70;;;17.00;50.70;213.40;229858.00;;;;5344842;26;20253;-59
2024/04/10 10:34:00;;;;;;;0.50;0.50;;;17.00;51.40;213.40;229858.00;;;;5335178;26;20302;-58
2024/04/10 10:36:28;;;;;;;0.57;0.50;;;17.00;50.70;213.40;229858.00;;;;5310473;26;20801;-58
2024/04/10 10:39:01;;;;;;;0.47;0.47;;;17.00;50.70;213.40;229858.00;;;;5309290;26;20353;-58
2024/04/10 10:41:29;;;;;;;0.60;0.60;;;17.00;50.60;213.40;229858.00;;;;5310837;26;20305;-58
2024/04/10 10:44:00;;;;;;;0.50;0.50;;;17.10;50.70;213.40;229858.00;;;;5310541;26;20623;-59
2024/04/10 10:46:29;;;;;;;0.83;0.60;;;17.10;50.70;213.40;229858.00;;;;5310032;26;20360;-58
2024/04/10 10:48:55;;;;;;;0.60;0.50;;;17.10;50.70;213.40;229858.00;;;;5309794;26;20356;-58